Northfield, Connecticut
Current Conditions -  °F | °C
As of 1:55 AM on Saturday 25 Oct 2014 (Local Time) from KOXC Reporting Station
Clear Clear  
Wind Chill: 45°   Ceiling: Unl
Heat Index: 48°   Visibility: 10mi
Dew Point: 37°   Wind: 7mph
Humidity: 66%   Direction: 320°NW
Pressure: 29.82"   Gusts: NA
Location:  41.69°N, 73.11°W
Report Text: KOXC 250555Z 32006KT 10SM CLR 09/03 A2982 RMK AO1 10100 20080 52003
Loading
Personal Weather Stations






























Interactive Weather Map
Tropical Storm Tracking
New forecast layout! Learn more

10-Day Weather Forecast

Advertisements
Track Severe Weather on mobile